createdAt,value
2023-04-02T00:05:19.871Z,99634.00
2023-04-02T00:10:35.562Z,99641.00
2023-04-02T00:15:42.839Z,99639.80
2023-04-02T00:21:14.048Z,99644.00
2023-04-02T00:26:27.008Z,99651.00
2023-04-02T00:31:33.322Z,99657.60
2023-04-02T00:36:38.053Z,99660.40
2023-04-02T00:41:47.016Z,99663.20
2023-04-02T00:46:51.708Z,99669.40
2023-04-02T00:52:02.307Z,99675.40
2023-04-02T00:57:22.241Z,99677.00
2023-04-02T01:02:33.097Z,99679.40
2023-04-02T01:08:04.891Z,99690.40
2023-04-02T01:13:42.443Z,99692.20
2023-04-02T01:19:18.569Z,99699.40
2023-04-02T01:24:30.200Z,99707.80
2023-04-02T01:30:00.855Z,99712.00
2023-04-02T01:35:06.193Z,99718.20
2023-04-02T01:40:54.882Z,99714.80
2023-04-02T01:46:00.116Z,99720.00
2023-04-02T01:51:08.538Z,99721.20
2023-04-02T01:56:12.042Z,99726.40
2023-04-02T02:01:23.187Z,99730.00
2023-04-02T02:06:27.839Z,99739.80
2023-04-02T02:11:34.037Z,99742.80
2023-04-02T02:16:42.454Z,99748.20
2023-04-02T02:22:05.830Z,99754.40
2023-04-02T02:27:24.312Z,99759.00
2023-04-02T02:32:32.372Z,99765.80
2023-04-02T02:37:44.379Z,99767.00
2023-04-02T02:43:02.379Z,99773.20
2023-04-02T02:48:14.350Z,99772.40
2023-04-02T02:53:25.019Z,99782.20
2023-04-02T02:58:34.560Z,99786.20
2023-04-02T03:03:39.336Z,99793.20
2023-04-02T03:09:15.281Z,99795.00
2023-04-02T03:14:52.960Z,99802.60
2023-04-02T03:20:22.537Z,99811.20
2023-04-02T03:25:37.672Z,99823.60
2023-04-02T03:31:03.316Z,99830.40
2023-04-02T03:36:31.867Z,99835.00
2023-04-02T03:41:47.112Z,99844.80
2023-04-02T03:47:01.862Z,99849.60
2023-04-02T03:52:13.868Z,99863.20
2023-04-02T03:57:33.477Z,99869.20
2023-04-02T04:02:57.810Z,99875.80
2023-04-02T04:08:07.850Z,99882.40
2023-04-02T04:13:22.012Z,99887.40
2023-04-02T04:18:57.475Z,99894.20
2023-04-02T04:24:24.571Z,99901.80
2023-04-02T04:29:45.861Z,99904.80
2023-04-02T04:34:56.987Z,99910.60
2023-04-02T04:40:21.494Z,99918.80
2023-04-02T04:45:56.915Z,99930.20
2023-04-02T04:51:15.942Z,99938.40
2023-04-02T04:56:29.098Z,99946.40
2023-04-02T05:16:59.547Z,99972.00
2023-04-02T05:22:21.195Z,99981.80
2023-04-02T05:34:27.933Z,99997.00
2023-04-02T05:39:33.314Z,99997.40
2023-04-02T05:45:13.886Z,100002.40
2023-04-02T05:50:37.997Z,100008.00
2023-04-02T05:56:17.046Z,100014.60
2023-04-02T06:11:28.095Z,100032.40
2023-04-02T06:41:13.450Z,100074.80
2023-04-02T06:46:42.857Z,100078.40
2023-04-02T07:06:20.616Z,100100.60
2023-04-02T07:26:07.828Z,100141.00
2023-04-02T07:31:34.100Z,100140.60
2023-04-02T07:36:37.989Z,100148.20
2023-04-02T07:41:57.047Z,100150.20
2023-04-02T07:47:01.197Z,100162.60
2023-04-02T08:06:21.602Z,100178.60
2023-04-02T08:18:53.053Z,100199.00
2023-04-02T08:23:57.158Z,100208.40
2023-04-02T08:29:00.908Z,100219.60
2023-04-02T08:34:14.065Z,100224.60
2023-04-02T08:39:17.565Z,100232.40
2023-04-02T08:45:24.260Z,100239.00
2023-04-02T08:50:35.263Z,100244.20
2023-04-02T08:56:10.333Z,100245.80
2023-04-02T09:01:47.645Z,100250.40
2023-04-02T09:29:16.894Z,100296.60
2023-04-02T09:34:31.631Z,100308.00
2023-04-02T09:48:06.993Z,100329.60
2023-04-02T09:53:51.008Z,100336.80
2023-04-02T09:59:13.181Z,100346.60
2023-04-02T10:05:20.924Z,100354.40
2023-04-02T10:10:44.858Z,100365.00
2023-04-02T10:16:11.536Z,100370.20
2023-04-02T10:22:47.097Z,100376.00
2023-04-02T10:28:46.259Z,100388.00
2023-04-02T10:34:13.012Z,100390.40
2023-04-02T10:39:19.053Z,100396.20
2023-04-02T10:44:43.971Z,100396.60
2023-04-02T10:50:50.081Z,100402.40
2023-04-02T10:56:05.351Z,100410.40
2023-04-02T11:01:17.911Z,100416.80
2023-04-02T11:06:45.366Z,100421.60
2023-04-02T11:12:00.484Z,100439.40
2023-04-02T11:17:04.706Z,100446.80
2023-04-02T11:22:34.220Z,100447.80
2023-04-02T11:27:39.546Z,100457.00
2023-04-02T11:32:51.660Z,100456.40
2023-04-02T11:39:18.695Z,100465.20
2023-04-02T11:44:24.554Z,100478.00
2023-04-02T11:49:41.488Z,100482.00
2023-04-02T11:55:42.157Z,100491.40
2023-04-02T12:00:54.929Z,100493.40
2023-04-02T12:06:26.737Z,100498.40
2023-04-02T12:12:47.913Z,100502.80
2023-04-02T12:18:14.798Z,100509.20
2023-04-02T12:24:00.331Z,100516.60
2023-04-02T12:29:29.698Z,100524.60
2023-04-02T12:34:35.467Z,100534.80
2023-04-02T12:40:57.425Z,100531.00
2023-04-02T12:53:37.935Z,100547.20
2023-04-02T12:59:23.676Z,100563.20
2023-04-02T13:04:27.949Z,100570.00
2023-04-02T13:09:42.004Z,100572.80
2023-04-02T13:14:46.646Z,100578.00
2023-04-02T13:34:32.714Z,100613.60
2023-04-02T13:39:38.331Z,100616.00
2023-04-02T13:44:43.586Z,100621.40
2023-04-02T13:49:48.948Z,100621.60
2023-04-02T13:55:00.343Z,100625.60
2023-04-02T14:00:06.769Z,100630.00
2023-04-02T14:05:24.591Z,100639.00
2023-04-02T14:10:54.741Z,100641.00
2023-04-02T14:16:28.253Z,100638.80
2023-04-02T14:28:58.278Z,100654.80
2023-04-02T14:34:54.389Z,100659.60
2023-04-02T14:40:32.440Z,100661.80
2023-04-02T14:52:42.749Z,100670.20
2023-04-02T14:58:10.407Z,100676.00
2023-04-02T15:10:49.546Z,100691.20
2023-04-02T15:16:27.141Z,100692.60
2023-04-02T15:29:00.453Z,100709.60
2023-04-02T15:50:07.258Z,100742.20
2023-04-02T15:55:54.192Z,100752.00
2023-04-02T16:02:24.866Z,100756.00
2023-04-02T16:08:18.455Z,100766.20
2023-04-02T16:13:37.458Z,100771.40
2023-04-02T16:19:16.681Z,100775.40
2023-04-02T16:24:21.070Z,100787.80
2023-04-02T16:29:55.341Z,100782.00
2023-04-02T16:35:42.358Z,100790.40
2023-04-02T16:41:19.626Z,100815.20
2023-04-02T16:46:54.437Z,100824.40
2023-04-02T16:52:32.318Z,100841.40
2023-04-02T16:57:56.050Z,100847.60
2023-04-02T17:03:40.369Z,100859.20
2023-04-02T17:09:18.080Z,100870.60
2023-04-02T17:14:45.761Z,100883.60
2023-04-02T17:19:56.773Z,100891.20
2023-04-02T17:39:28.817Z,100916.00
2023-04-02T17:44:49.587Z,100931.80
2023-04-02T17:50:32.335Z,100946.80
2023-04-02T17:56:06.001Z,100960.40
2023-04-02T18:15:47.746Z,100986.60
2023-04-02T18:21:23.226Z,100990.40
2023-04-02T18:27:01.450Z,101001.60
2023-04-02T18:33:07.843Z,101008.00
2023-04-02T18:39:18.649Z,101025.00
2023-04-02T18:44:58.787Z,101027.20
2023-04-02T18:50:20.192Z,101032.60
2023-04-02T18:55:32.367Z,101041.60
2023-04-02T19:00:58.255Z,101046.20
2023-04-02T19:20:44.898Z,101071.60
2023-04-02T19:31:09.340Z,101083.60
2023-04-02T19:36:28.836Z,101078.80
2023-04-02T19:41:44.625Z,101090.80
2023-04-02T19:47:17.418Z,101105.20
2023-04-02T19:52:22.716Z,101111.00
2023-04-02T20:12:17.016Z,101125.80
2023-04-02T20:24:24.900Z,101143.60
2023-04-02T20:29:57.451Z,101150.40
2023-04-02T20:35:03.366Z,101151.80
2023-04-02T20:40:09.161Z,101149.20
2023-04-02T20:45:13.277Z,101160.20
2023-04-02T20:50:18.195Z,101170.00
2023-04-02T20:55:22.132Z,101169.20
2023-04-02T21:00:26.046Z,101173.80
2023-04-02T21:05:29.854Z,101184.80
2023-04-02T21:10:33.945Z,101190.40
2023-04-02T21:15:44.716Z,101194.40
2023-04-02T21:28:34.866Z,101206.40
2023-04-02T21:34:05.400Z,101215.20
2023-04-02T21:44:36.186Z,101222.80
2023-04-02T21:49:40.768Z,101223.80
2023-04-02T21:55:42.528Z,101231.40
2023-04-02T22:00:46.570Z,101229.60
2023-04-02T22:05:51.097Z,101228.60
2023-04-02T22:10:55.258Z,101232.00
2023-04-02T22:23:05.874Z,101239.60
2023-04-02T22:35:31.729Z,101247.40
2023-04-02T22:40:51.017Z,101246.60
2023-04-02T22:45:54.597Z,101249.20
2023-04-02T22:55:27.363Z,101263.80
2023-04-02T23:25:21.409Z,101270.60
2023-04-02T23:41:51.824Z,101272.80
2023-04-02T23:46:56.113Z,101275.80
2023-04-02T23:51:59.664Z,101272.00
